createdAt,value
2022-09-15T00:02:46.390Z,96675.29
2022-09-15T00:06:22.340Z,96676.50
2022-09-15T00:09:59.448Z,96667.62
2022-09-15T00:13:38.573Z,96662.58
2022-09-15T00:17:12.934Z,96663.88
2022-09-15T00:20:49.517Z,96659.38
2022-09-15T00:24:26.545Z,96657.27
2022-09-15T00:28:03.443Z,96652.48
2022-09-15T00:31:40.040Z,96652.06
2022-09-15T00:35:17.712Z,96652.44
2022-09-15T00:38:54.528Z,96653.06
2022-09-15T00:42:49.314Z,96643.71
2022-09-15T00:46:31.834Z,96642.59
2022-09-15T00:50:16.759Z,96640.58
2022-09-15T00:54:00.904Z,96635.56
2022-09-15T00:57:29.241Z,96627.38
2022-09-15T01:01:02.240Z,96623.35
2022-09-15T01:04:36.556Z,96614.94
2022-09-15T01:08:25.038Z,96604.11
2022-09-15T01:12:08.902Z,96599.10
2022-09-15T01:16:12.400Z,96594.16
2022-09-15T01:20:31.879Z,96594.23
2022-09-15T01:24:31.253Z,96590.48
2022-09-15T01:28:24.415Z,96586.02
2022-09-15T01:32:27.721Z,96585.34
2022-09-15T01:35:56.322Z,96580.08
2022-09-15T01:39:32.203Z,96581.02
2022-09-15T01:43:25.007Z,96564.27
2022-09-15T01:46:52.335Z,96564.64
2022-09-15T01:50:32.963Z,96559.63
2022-09-15T01:54:04.069Z,96559.70
2022-09-15T01:57:37.237Z,96567.12
2022-09-15T02:01:50.988Z,96573.92
2022-09-15T02:05:25.473Z,96575.71
2022-09-15T02:09:00.513Z,96571.11
2022-09-15T02:12:35.622Z,96566.17
2022-09-15T02:16:04.972Z,96569.02
2022-09-15T02:19:43.163Z,96564.54
2022-09-15T02:23:42.910Z,96551.77
2022-09-15T02:27:28.192Z,96547.98
2022-09-15T02:30:53.541Z,96544.20
2022-09-15T02:34:34.286Z,96546.27
2022-09-15T02:38:07.517Z,96545.91
2022-09-15T02:41:41.668Z,96540.94
2022-09-15T02:45:17.474Z,96543.48
2022-09-15T02:48:54.482Z,96536.52
2022-09-15T02:52:31.095Z,96532.67
2022-09-15T02:56:08.041Z,96534.27
2022-09-15T03:00:02.940Z,96530.52
2022-09-15T03:03:26.458Z,96533.52
2022-09-15T03:07:02.119Z,96531.52
2022-09-15T03:10:58.400Z,96532.44
2022-09-15T03:14:39.095Z,96526.59
2022-09-15T03:18:02.109Z,96534.40
2022-09-15T03:21:37.819Z,96531.42
2022-09-15T03:25:14.451Z,96535.87
2022-09-15T03:28:51.199Z,96533.61
2022-09-15T03:32:46.736Z,96530.17
2022-09-15T03:36:27.976Z,96528.50
2022-09-15T03:39:49.862Z,96525.98
2022-09-15T03:43:45.306Z,96524.13
2022-09-15T03:47:07.118Z,96519.86
2022-09-15T03:50:43.699Z,96522.46
2022-09-15T03:54:21.093Z,96523.89
2022-09-15T03:57:57.408Z,96530.00
2022-09-15T04:01:35.271Z,96536.20
2022-09-15T04:05:13.266Z,96538.95
2022-09-15T04:08:49.113Z,96537.63
2022-09-15T04:12:24.696Z,96537.71
2022-09-15T04:16:04.255Z,96540.43
2022-09-15T04:19:37.992Z,96539.73
2022-09-15T04:23:14.943Z,96538.67
2022-09-15T04:26:51.657Z,96545.47
2022-09-15T04:30:28.643Z,96551.20
2022-09-15T04:34:05.496Z,96554.04
2022-09-15T04:37:42.081Z,96551.54
2022-09-15T04:41:37.861Z,96547.66
2022-09-15T04:44:59.547Z,96550.50
2022-09-15T04:48:56.079Z,96551.56
2022-09-15T04:52:17.790Z,96556.80
2022-09-15T04:56:11.562Z,96556.77
2022-09-15T04:59:53.438Z,96547.89
2022-09-15T05:03:15.312Z,96545.77
2022-09-15T05:06:52.774Z,96550.81
2022-09-15T05:10:28.789Z,96549.34
2022-09-15T05:14:06.032Z,96549.79
2022-09-15T05:17:42.681Z,96546.67
2022-09-15T05:21:21.487Z,96551.95
2022-09-15T05:24:56.194Z,96561.30
2022-09-15T05:28:34.842Z,96569.34
2022-09-15T05:32:09.807Z,96572.93
2022-09-15T05:35:58.729Z,96581.61
2022-09-15T05:39:23.367Z,96587.27
2022-09-15T05:43:19.722Z,96592.34
2022-09-15T05:46:40.987Z,96594.85
2022-09-15T05:50:38.704Z,96591.65
2022-09-15T05:54:00.589Z,96596.30
2022-09-15T05:57:37.154Z,96600.02
2022-09-15T06:01:19.887Z,96602.98
2022-09-15T06:04:50.716Z,96600.14
2022-09-15T06:08:35.976Z,96600.03
2022-09-15T06:12:04.987Z,96603.07
2022-09-15T06:16:12.289Z,96598.80
2022-09-15T06:19:37.813Z,96599.38
2022-09-15T06:23:30.254Z,96603.54
2022-09-15T06:26:53.722Z,96616.98
2022-09-15T06:30:30.285Z,96617.48
2022-09-15T06:34:06.811Z,96603.58
2022-09-15T06:37:43.454Z,96622.57
2022-09-15T06:41:21.607Z,96638.60
2022-09-15T06:44:58.221Z,96645.15
2022-09-15T06:48:35.247Z,96652.02
2022-09-15T06:52:29.903Z,96653.86
2022-09-15T06:55:52.161Z,96662.58
2022-09-15T06:59:28.415Z,96667.27
2022-09-15T07:03:24.323Z,96674.06
2022-09-15T07:06:47.591Z,96677.00
2022-09-15T07:10:44.228Z,96680.73
2022-09-15T07:14:25.209Z,96682.80
2022-09-15T07:18:06.098Z,96690.50
2022-09-15T07:21:27.632Z,96703.04
2022-09-15T07:25:23.805Z,96710.48
2022-09-15T07:28:50.059Z,96717.89
2022-09-15T07:32:22.573Z,96729.63
2022-09-15T07:36:19.166Z,96735.44
2022-09-15T07:39:41.016Z,96736.32
2022-09-15T07:43:17.544Z,96737.13
2022-09-15T07:46:54.638Z,96738.63
2022-09-15T07:50:50.274Z,96746.91
2022-09-15T07:54:30.691Z,96757.40
2022-09-15T07:58:00.528Z,96771.20
2022-09-15T08:01:29.479Z,96780.02
2022-09-15T08:05:27.562Z,96784.52
2022-09-15T08:08:55.232Z,96788.24
2022-09-15T08:12:45.900Z,96795.17
2022-09-15T08:16:09.525Z,96792.25
2022-09-15T08:19:44.397Z,96799.34
2022-09-15T08:23:40.527Z,96800.19
2022-09-15T08:27:21.145Z,96799.23
2022-09-15T08:30:42.996Z,96805.64
2022-09-15T08:34:20.150Z,96813.05
2022-09-15T08:38:15.718Z,96816.17
2022-09-15T08:41:44.250Z,96824.62
2022-09-15T08:45:48.889Z,96837.22
2022-09-15T08:49:30.777Z,96842.45
2022-09-15T08:53:37.125Z,96853.09
2022-09-15T08:57:22.922Z,96849.59
2022-09-15T09:00:48.834Z,96845.20
2022-09-15T09:04:47.532Z,96840.77
2022-09-15T09:08:32.225Z,96844.59
2022-09-15T09:12:35.701Z,96850.46
2022-09-15T09:16:36.239Z,96857.02
2022-09-15T09:20:36.855Z,96858.41
2022-09-15T09:24:14.555Z,96856.84
2022-09-15T09:27:38.938Z,96863.30
2022-09-15T09:31:21.457Z,96858.05
2022-09-15T09:35:13.470Z,96857.90
2022-09-15T09:38:39.834Z,96856.55
2022-09-15T09:42:36.525Z,96852.55
2022-09-15T09:45:59.419Z,96851.92
2022-09-15T09:49:41.074Z,96849.36
2022-09-15T09:53:32.463Z,96847.91
2022-09-15T09:56:57.252Z,96844.30
2022-09-15T10:00:52.160Z,96847.92
2022-09-15T10:04:19.357Z,96838.39
2022-09-15T10:08:18.723Z,96831.10
2022-09-15T10:12:03.436Z,96831.44
2022-09-15T10:15:27.994Z,96835.77
2022-09-15T10:19:02.952Z,96838.55
2022-09-15T10:23:20.531Z,96842.29
2022-09-15T10:27:17.615Z,96833.52
2022-09-15T10:30:58.814Z,96834.75
2022-09-15T10:34:25.479Z,96832.43
2022-09-15T10:38:28.195Z,96834.98
2022-09-15T10:42:48.234Z,96836.05
2022-09-15T10:46:50.651Z,96841.07
2022-09-15T10:50:21.733Z,96839.00
2022-09-15T10:54:09.689Z,96838.98
2022-09-15T10:57:44.478Z,96831.32
2022-09-15T11:01:32.242Z,96834.13
2022-09-15T11:05:12.436Z,96830.35
2022-09-15T11:09:08.036Z,96830.70
2022-09-15T11:13:09.766Z,96824.73
2022-09-15T11:17:10.051Z,96824.23
2022-09-15T11:20:55.984Z,96827.81
2022-09-15T11:24:44.270Z,96824.15
2022-09-15T11:28:36.178Z,96828.97
2022-09-15T11:32:58.033Z,96828.95
2022-09-15T11:36:30.500Z,96828.35
2022-09-15T11:40:16.409Z,96833.90
2022-09-15T11:43:55.753Z,96833.13
2022-09-15T11:47:24.258Z,96822.84
2022-09-15T11:50:59.482Z,96812.30
2022-09-15T11:54:43.274Z,96802.40
2022-09-15T11:58:36.045Z,96805.56
2022-09-15T12:02:17.074Z,96804.86
2022-09-15T12:06:04.841Z,96803.66
2022-09-15T12:09:27.218Z,96806.40
2022-09-15T12:13:24.814Z,96813.16
2022-09-15T12:16:47.656Z,96812.61
2022-09-15T12:20:43.459Z,96813.59
2022-09-15T12:24:51.969Z,96817.64
2022-09-15T12:28:22.508Z,96803.11
2022-09-15T12:32:26.222Z,96809.35
2022-09-15T12:35:48.103Z,96818.96
2022-09-15T12:39:41.005Z,96806.81
2022-09-15T12:43:18.822Z,96800.88
2022-09-15T12:46:51.601Z,96799.88
2022-09-15T12:50:27.228Z,96799.24
2022-09-15T12:54:00.398Z,96800.52
2022-09-15T12:58:13.180Z,96801.40
2022-09-15T13:01:56.011Z,96796.80
2022-09-15T13:05:50.929Z,96785.10
2022-09-15T13:09:28.086Z,96785.80
2022-09-15T13:13:11.343Z,96789.23
2022-09-15T13:16:48.806Z,96789.00
2022-09-15T13:20:20.109Z,96787.67
2022-09-15T13:23:53.119Z,96793.48
2022-09-15T13:27:49.070Z,96787.73
2022-09-15T13:31:34.597Z,96791.59
2022-09-15T13:35:26.712Z,96789.68
2022-09-15T13:39:36.362Z,96791.94
2022-09-15T13:43:29.891Z,96791.37
2022-09-15T13:47:22.928Z,96799.17
2022-09-15T13:51:01.674Z,96796.96
2022-09-15T13:54:24.556Z,96800.70
2022-09-15T14:02:09.203Z,96794.77
2022-09-15T14:05:45.483Z,96787.90
2022-09-15T14:09:46.816Z,96776.84
2022-09-15T14:13:15.860Z,96784.66
2022-09-15T14:17:05.142Z,96791.08
2022-09-15T14:20:33.513Z,96786.98
2022-09-15T14:24:07.039Z,96800.42
2022-09-15T14:27:51.572Z,96787.71
2022-09-15T14:31:26.491Z,96780.84
2022-09-15T14:34:59.190Z,96768.73
2022-09-15T14:39:18.003Z,96760.59
2022-09-15T14:42:41.528Z,96752.49
2022-09-15T14:46:19.322Z,96753.31
2022-09-15T14:50:20.966Z,96751.12
2022-09-15T14:54:03.176Z,96753.23
2022-09-15T14:57:30.865Z,96758.39
2022-09-15T15:01:13.417Z,96749.48
2022-09-15T15:05:08.026Z,96749.86
2022-09-15T15:08:42.161Z,96744.64
2022-09-15T15:12:33.698Z,96739.92
2022-09-15T15:15:55.790Z,96749.36
2022-09-15T15:19:41.176Z,96752.41
2022-09-15T15:23:25.665Z,96753.85
2022-09-15T15:27:43.012Z,96748.08
2022-09-15T15:31:13.728Z,96750.87
2022-09-15T15:35:08.369Z,96748.71
2022-09-15T15:38:35.556Z,96749.03
2022-09-15T15:42:28.173Z,96754.38
2022-09-15T15:46:10.654Z,96757.20
2022-09-15T15:50:12.374Z,96752.39
2022-09-15T15:53:34.978Z,96761.00
2022-09-15T15:57:37.331Z,96762.33
2022-09-15T16:00:59.136Z,96762.42
2022-09-15T16:04:35.928Z,96767.34
2022-09-15T16:08:22.880Z,96768.00
2022-09-15T16:12:08.921Z,96769.45
2022-09-15T16:15:30.895Z,96770.87
2022-09-15T16:19:08.539Z,96779.77
2022-09-15T16:23:03.354Z,96777.89
2022-09-15T16:26:26.020Z,96774.22
2022-09-15T16:30:03.589Z,96781.19
2022-09-15T16:33:39.780Z,96788.13
2022-09-15T16:37:15.749Z,96783.06
2022-09-15T16:41:17.470Z,96782.08
2022-09-15T16:44:39.722Z,96778.86
2022-09-15T16:48:34.938Z,96781.37
2022-09-15T16:52:16.282Z,96785.45
2022-09-15T16:55:40.497Z,96782.48
2022-09-15T16:59:15.026Z,96792.69
2022-09-15T17:02:51.660Z,96795.73
2022-09-15T17:06:28.740Z,96805.82
2022-09-15T17:10:06.065Z,96800.23
2022-09-15T17:13:42.062Z,96792.34
2022-09-15T17:17:25.498Z,96790.08
2022-09-15T17:21:16.555Z,96796.48
2022-09-15T17:24:38.352Z,96804.02
2022-09-15T17:28:15.754Z,96797.08
2022-09-15T17:31:52.075Z,96810.80
2022-09-15T17:35:33.832Z,96816.65
2022-09-15T17:39:05.904Z,96821.35
2022-09-15T17:42:43.314Z,96819.05
2022-09-15T17:46:19.267Z,96816.74
2022-09-15T17:49:56.173Z,96804.89
2022-09-15T17:53:32.945Z,96800.30
2022-09-15T17:57:12.079Z,96798.60
2022-09-15T18:00:47.751Z,96812.41
2022-09-15T18:04:23.309Z,96808.77
2022-09-15T18:08:03.481Z,96818.39
2022-09-15T18:11:36.786Z,96822.20
2022-09-15T18:15:17.710Z,96824.04
2022-09-15T18:18:50.309Z,96827.21
2022-09-15T18:22:27.002Z,96828.28
2022-09-15T18:26:03.992Z,96836.39
2022-09-15T18:29:59.806Z,96852.05
2022-09-15T18:33:40.302Z,96842.77
2022-09-15T18:37:02.662Z,96836.36
2022-09-15T18:40:58.391Z,96825.45
2022-09-15T18:44:39.282Z,96816.80
2022-09-15T18:48:00.790Z,96798.43
2022-09-15T18:51:51.148Z,96804.55
2022-09-15T18:55:34.084Z,96814.02
2022-09-15T18:59:17.671Z,96818.17
2022-09-15T19:03:01.820Z,96825.02
2022-09-15T19:06:23.467Z,96834.82
2022-09-15T19:10:01.791Z,96834.92
2022-09-15T19:13:56.391Z,96827.17
2022-09-15T19:17:19.484Z,96821.16
2022-09-15T19:21:14.506Z,96819.35
2022-09-15T19:24:55.870Z,96831.52
2022-09-15T19:28:17.600Z,96840.21
2022-09-15T19:31:55.900Z,96835.60
2022-09-15T19:36:05.067Z,96846.33
2022-09-15T19:39:52.520Z,96843.23
2022-09-15T19:43:14.499Z,96839.54
2022-09-15T19:46:51.519Z,96839.70
2022-09-15T19:50:28.742Z,96844.22
2022-09-15T19:54:26.256Z,96840.67
2022-09-15T19:58:07.526Z,96845.08
2022-09-15T20:01:48.726Z,96845.98
2022-09-15T20:05:29.676Z,96858.14
2022-09-15T20:08:53.837Z,96858.09
2022-09-15T20:12:28.268Z,96851.88
2022-09-15T20:16:24.842Z,96855.20
2022-09-15T20:19:46.591Z,96853.43
2022-09-15T20:23:44.695Z,96845.30
2022-09-15T20:27:25.400Z,96847.19
2022-09-15T20:31:10.509Z,96846.96
2022-09-15T20:34:32.385Z,96848.89
2022-09-15T20:38:28.036Z,96847.67
2022-09-15T20:41:50.072Z,96848.63
2022-09-15T20:45:26.397Z,96853.15
2022-09-15T20:49:04.663Z,96860.27
2022-09-15T20:52:40.873Z,96869.93
2022-09-15T20:56:21.297Z,96873.00
2022-09-15T20:59:54.015Z,96878.50
2022-09-15T21:03:49.412Z,96881.16
2022-09-15T21:07:11.418Z,96887.14
2022-09-15T21:10:49.346Z,96883.25
2022-09-15T21:14:24.950Z,96886.55
2022-09-15T21:18:21.007Z,96888.83
2022-09-15T21:21:43.497Z,96896.41
2022-09-15T21:25:20.820Z,96902.71
2022-09-15T21:28:57.277Z,96901.77
2022-09-15T21:32:52.397Z,96907.88
2022-09-15T21:36:22.323Z,96911.08
2022-09-15T21:40:10.213Z,96916.00
2022-09-15T21:43:37.411Z,96919.77
2022-09-15T21:47:08.937Z,96927.67
2022-09-15T21:50:52.335Z,96930.83
2022-09-15T21:54:22.814Z,96928.50
2022-09-15T21:57:58.975Z,96929.35
2022-09-15T22:01:54.618Z,96929.35
2022-09-15T22:05:16.334Z,96929.58
2022-09-15T22:08:54.854Z,96931.44
2022-09-15T22:12:51.946Z,96931.16
2022-09-15T22:16:32.338Z,96931.80
2022-09-15T22:19:54.711Z,96933.41
2022-09-15T22:23:52.708Z,96937.08
2022-09-15T22:27:15.020Z,96939.92
2022-09-15T22:30:56.934Z,96941.33
2022-09-15T22:34:29.253Z,96954.18
2022-09-15T22:38:05.046Z,96956.04
2022-09-15T22:41:42.435Z,96959.05
2022-09-15T22:45:19.023Z,96965.48
2022-09-15T22:48:55.465Z,96968.31
2022-09-15T22:52:51.689Z,96966.36
2022-09-15T22:56:19.953Z,96963.15
2022-09-15T23:00:10.160Z,96964.09
2022-09-15T23:03:32.569Z,96968.73
2022-09-15T23:07:09.188Z,96971.23
2022-09-15T23:10:45.529Z,96975.73
2022-09-15T23:14:41.877Z,96975.78
2022-09-15T23:18:03.819Z,96976.82
2022-09-15T23:21:40.873Z,96977.36
2022-09-15T23:25:17.332Z,96976.38
2022-09-15T23:28:54.770Z,96980.37
2022-09-15T23:32:49.503Z,96981.27
2022-09-15T23:36:30.140Z,96984.08
2022-09-15T23:40:10.817Z,96985.00
2022-09-15T23:43:33.357Z,96984.20
2022-09-15T23:47:09.458Z,96984.06
2022-09-15T23:50:46.500Z,96985.29
2022-09-15T23:54:23.165Z,96989.38
2022-09-15T23:57:59.863Z,96992.70
